createdAt,value
2018-09-17T00:01:45.449Z,11.40
2018-09-17T00:04:22.138Z,11.14
2018-09-17T00:07:01.098Z,11.59
2018-09-17T00:09:37.674Z,11.66
2018-09-17T00:12:15.396Z,11.78
2018-09-17T00:14:50.714Z,11.52
2018-09-17T00:17:26.686Z,11.54
2018-09-17T00:20:03.195Z,11.49
2018-09-17T00:22:39.962Z,11.35
2018-09-17T00:25:14.820Z,11.53
2018-09-17T00:27:52.495Z,11.44
2018-09-17T00:30:28.113Z,11.45
2018-09-17T00:33:11.571Z,11.45
2018-09-17T00:35:47.427Z,11.30
2018-09-17T00:38:23.341Z,11.36
2018-09-17T00:40:58.629Z,11.42
2018-09-17T00:43:35.444Z,11.35
2018-09-17T00:46:11.502Z,11.27
2018-09-17T00:48:48.820Z,11.09
2018-09-17T00:51:26.844Z,11.07
2018-09-17T00:54:05.301Z,11.17
2018-09-17T00:56:46.300Z,10.98
2018-09-17T00:59:22.188Z,10.84
2018-09-17T01:01:57.610Z,11.04
2018-09-17T01:04:34.251Z,10.67
2018-09-17T01:07:11.170Z,10.50
2018-09-17T01:09:47.202Z,10.79
2018-09-17T01:12:23.818Z,10.76
2018-09-17T01:14:59.820Z,10.91
2018-09-17T01:17:33.926Z,10.60
2018-09-17T01:20:16.114Z,10.40
2018-09-17T01:22:54.443Z,10.61
2018-09-17T01:25:31.957Z,10.78
2018-09-17T01:28:07.768Z,10.45
2018-09-17T01:30:50.046Z,10.70
2018-09-17T01:33:30.320Z,10.88
2018-09-17T01:36:06.783Z,10.96
2018-09-17T01:38:42.057Z,10.54
2018-09-17T01:41:22.276Z,10.59
2018-09-17T01:44:01.355Z,10.86
2018-09-17T01:46:41.282Z,10.81
2018-09-17T01:49:24.916Z,10.57
2018-09-17T01:52:03.611Z,10.55
2018-09-17T01:54:42.597Z,10.75
2018-09-17T01:57:23.956Z,10.59
2018-09-17T02:00:00.772Z,10.80
2018-09-17T02:02:38.486Z,10.42
2018-09-17T02:05:15.683Z,10.69
2018-09-17T02:07:52.451Z,10.58
2018-09-17T02:10:33.356Z,10.68
2018-09-17T02:13:12.079Z,10.65
2018-09-17T02:15:52.563Z,10.61
2018-09-17T02:18:30.116Z,10.75
2018-09-17T02:21:06.608Z,10.64
2018-09-17T02:23:45.833Z,10.78
2018-09-17T02:26:25.202Z,10.72
2018-09-17T02:29:01.831Z,10.76
2018-09-17T02:31:39.048Z,10.71
2018-09-17T02:34:17.987Z,10.41
2018-09-17T02:36:57.755Z,10.35
2018-09-17T02:39:38.872Z,10.21
2018-09-17T02:42:18.302Z,10.38
2018-09-17T02:44:57.697Z,10.38
2018-09-17T02:47:37.395Z,10.37
2018-09-17T02:50:17.813Z,10.06
2018-09-17T02:52:57.243Z,10.09
2018-09-17T02:55:33.931Z,9.91
2018-09-17T02:58:09.139Z,9.55
2018-09-17T03:00:48.791Z,9.91
2018-09-17T03:03:30.554Z,10.07
2018-09-17T03:06:10.187Z,10.02
2018-09-17T03:08:49.019Z,10.09
2018-09-17T03:11:27.356Z,9.84
2018-09-17T03:14:06.356Z,9.54
2018-09-17T03:16:49.176Z,9.71
2018-09-17T03:19:29.313Z,9.22
2018-09-17T03:22:06.945Z,9.28
2018-09-17T03:24:42.692Z,9.66
2018-09-17T03:27:19.748Z,9.86
2018-09-17T03:29:57.922Z,9.98
2018-09-17T03:32:36.626Z,9.87
2018-09-17T03:35:18.590Z,9.96
2018-09-17T03:37:56.569Z,9.64
2018-09-17T03:40:37.456Z,9.54
2018-09-17T03:43:15.295Z,9.44
2018-09-17T03:45:53.429Z,9.81
2018-09-17T03:48:32.161Z,9.69
2018-09-17T03:51:12.463Z,8.63
2018-09-17T03:53:48.601Z,8.95
2018-09-17T03:56:30.496Z,9.27
2018-09-17T03:59:07.637Z,9.33
2018-09-17T04:01:50.501Z,9.35
2018-09-17T04:04:29.093Z,9.35
2018-09-17T04:07:08.885Z,9.39
2018-09-17T04:09:51.920Z,9.24
2018-09-17T04:12:33.687Z,9.44
2018-09-17T04:15:14.037Z,9.39
2018-09-17T04:17:51.395Z,9.56
2018-09-17T04:20:30.172Z,9.53
2018-09-17T04:23:13.673Z,9.20
2018-09-17T04:25:53.978Z,9.51
2018-09-17T04:28:36.738Z,8.90
2018-09-17T04:31:16.226Z,8.66
2018-09-17T04:33:53.428Z,8.85
2018-09-17T04:36:31.754Z,9.01
2018-09-17T04:39:10.207Z,9.21
2018-09-17T04:41:46.438Z,9.14
2018-09-17T04:44:25.934Z,9.22
2018-09-17T04:47:01.946Z,9.18
2018-09-17T04:49:48.180Z,9.19
2018-09-17T04:52:30.935Z,9.03
2018-09-17T04:55:07.285Z,9.15
2018-09-17T04:57:45.904Z,9.16
2018-09-17T05:00:32.949Z,8.94
2018-09-17T05:03:24.927Z,8.51
2018-09-17T05:06:04.062Z,8.84
2018-09-17T05:08:51.634Z,9.00
2018-09-17T05:11:35.113Z,9.09
2018-09-17T05:14:18.351Z,9.17
2018-09-17T05:16:59.251Z,9.15
2018-09-17T05:19:40.726Z,9.13
2018-09-17T05:22:22.796Z,9.40
2018-09-17T05:25:02.215Z,9.19
2018-09-17T05:27:38.029Z,9.10
2018-09-17T05:30:16.453Z,9.22
2018-09-17T05:32:57.614Z,9.23
2018-09-17T05:35:36.719Z,9.25
2018-09-17T05:38:13.164Z,9.35
2018-09-17T05:41:53.220Z,9.30
2018-09-17T05:44:32.710Z,9.36
2018-09-17T05:47:13.184Z,9.31
2018-09-17T05:49:49.856Z,9.51
2018-09-17T05:52:27.044Z,9.71
2018-09-17T05:55:05.468Z,9.78
2018-09-17T05:57:44.660Z,9.83
2018-09-17T06:00:25.261Z,9.91
2018-09-17T06:03:05.640Z,10.03
2018-09-17T06:05:44.862Z,10.03
2018-09-17T06:08:23.692Z,9.95
2018-09-17T06:11:05.648Z,10.09
2018-09-17T06:18:38.438Z,10.22
2018-09-17T06:21:19.064Z,10.32
2018-09-17T06:23:57.292Z,10.21
2018-09-17T06:26:38.352Z,10.19
2018-09-17T06:29:15.985Z,10.34
2018-09-17T06:31:57.588Z,10.46
2018-09-17T06:34:34.664Z,10.65
2018-09-17T06:37:14.365Z,10.73
2018-09-17T06:39:52.340Z,10.76
2018-09-17T06:42:30.536Z,10.60
2018-09-17T06:45:07.585Z,10.78
2018-09-17T06:47:47.419Z,10.88
2018-09-17T06:50:26.059Z,10.99
2018-09-17T06:53:06.980Z,11.10
2018-09-17T06:55:45.270Z,11.22
2018-09-17T06:58:26.154Z,11.35
2018-09-17T07:01:10.837Z,11.40
2018-09-17T07:03:49.106Z,11.53
2018-09-17T07:09:11.253Z,11.76
2018-09-17T07:14:34.740Z,11.95
2018-09-17T07:17:15.073Z,12.00
2018-09-17T07:19:53.741Z,12.15
2018-09-17T07:22:32.767Z,12.37
2018-09-17T07:25:11.387Z,12.42
2018-09-17T07:27:46.323Z,12.55
2018-09-17T07:30:22.368Z,12.69
2018-09-17T07:33:00.966Z,12.89
2018-09-17T07:35:36.660Z,13.03
2018-09-17T07:38:17.949Z,13.06
2018-09-17T07:40:57.254Z,13.19
2018-09-17T07:43:34.932Z,13.30
2018-09-17T07:46:10.569Z,13.44
2018-09-17T07:48:52.926Z,13.52
2018-09-17T07:51:31.440Z,13.61
2018-09-17T07:54:12.674Z,13.77
2018-09-17T07:56:47.956Z,13.90
2018-09-17T07:59:27.975Z,14.03
2018-09-17T08:02:04.549Z,14.16
2018-09-17T08:04:42.082Z,14.27
2018-09-17T08:07:21.465Z,14.39
2018-09-17T08:10:00.357Z,14.49
2018-09-17T08:12:39.051Z,14.62
2018-09-17T08:15:15.136Z,14.79
2018-09-17T08:17:50.977Z,14.94
2018-09-17T08:20:31.496Z,15.10
2018-09-17T08:23:09.664Z,15.24
2018-09-17T08:25:45.485Z,15.29
2018-09-17T08:28:27.965Z,15.50
2018-09-17T08:31:06.912Z,15.60
2018-09-17T08:33:45.263Z,15.73
2018-09-17T08:36:25.486Z,15.86
2018-09-17T08:39:03.102Z,15.93
2018-09-17T08:41:42.774Z,16.14
2018-09-17T08:44:20.599Z,16.20
2018-09-17T08:47:00.558Z,16.37
2018-09-17T08:49:37.508Z,16.41
2018-09-17T08:52:18.883Z,16.50
2018-09-17T08:55:00.856Z,16.62
2018-09-17T08:57:39.357Z,16.66
2018-09-17T09:00:21.297Z,16.76
2018-09-17T09:03:01.725Z,16.86
2018-09-17T09:05:48.396Z,17.02
2018-09-17T09:08:30.196Z,17.02
2018-09-17T09:11:09.522Z,17.24
2018-09-17T09:13:51.822Z,17.25
2018-09-17T09:16:30.484Z,17.52
2018-09-17T09:19:06.359Z,17.65
2018-09-17T09:21:46.726Z,17.71
2018-09-17T09:24:29.021Z,17.76
2018-09-17T09:27:06.867Z,17.84
2018-09-17T09:29:42.140Z,17.93
2018-09-17T09:32:27.681Z,18.04
2018-09-17T09:35:11.256Z,18.27
2018-09-17T09:37:48.522Z,18.23
2018-09-17T09:40:24.465Z,18.35
2018-09-17T09:42:53.210Z,18.40
2018-09-17T09:45:21.728Z,18.51
2018-09-17T09:47:50.285Z,18.82
2018-09-17T09:50:18.807Z,18.87
2018-09-17T09:52:47.417Z,18.78
2018-09-17T09:55:15.917Z,18.84
2018-09-17T09:57:44.453Z,18.88
2018-09-17T10:00:18.216Z,19.18
2018-09-17T10:02:47.690Z,19.27
2018-09-17T10:05:16.677Z,19.45
2018-09-17T10:07:45.247Z,19.30
2018-09-17T10:10:18.775Z,19.40
2018-09-17T10:12:52.481Z,19.45
2018-09-17T10:15:30.157Z,19.56
2018-09-17T10:18:04.537Z,19.77
2018-09-17T10:20:33.036Z,19.84
2018-09-17T10:23:01.715Z,20.01
2018-09-17T10:25:30.215Z,20.14
2018-09-17T10:27:58.758Z,20.27
2018-09-17T10:30:27.265Z,20.43
2018-09-17T10:32:55.800Z,20.51
2018-09-17T10:35:24.308Z,20.55
2018-09-17T10:37:52.809Z,20.72
2018-09-17T10:40:21.433Z,20.69
2018-09-17T10:42:49.928Z,20.69
2018-09-17T10:45:18.460Z,20.65
2018-09-17T10:47:46.952Z,21.07
2018-09-17T10:50:15.484Z,21.16
2018-09-17T10:52:43.983Z,21.50
2018-09-17T10:55:12.517Z,21.52
2018-09-17T10:57:41.012Z,21.59
2018-09-17T11:00:09.569Z,21.69
2018-09-17T11:02:38.064Z,22.06
2018-09-17T11:05:06.607Z,22.12
2018-09-17T11:07:35.144Z,22.28
2018-09-17T11:10:04.283Z,22.33
2018-09-17T11:12:32.772Z,22.40
2018-09-17T11:15:01.300Z,22.46
2018-09-17T11:17:29.935Z,22.82
2018-09-17T11:19:58.373Z,22.79
2018-09-17T11:22:26.864Z,22.77
2018-09-17T11:24:55.396Z,22.79
2018-09-17T11:27:23.890Z,23.29
2018-09-17T11:29:52.418Z,23.24
2018-09-17T11:32:20.941Z,23.59
2018-09-17T11:34:49.800Z,23.52
2018-09-17T11:37:18.304Z,23.55
2018-09-17T11:39:46.845Z,24.00
2018-09-17T11:42:15.340Z,23.98
2018-09-17T11:44:43.869Z,23.79
2018-09-17T11:47:12.364Z,23.90
2018-09-17T11:49:40.916Z,23.77
2018-09-17T11:52:09.463Z,23.96
2018-09-17T11:54:37.992Z,24.27
2018-09-17T11:57:06.488Z,24.56
2018-09-17T11:59:35.436Z,24.53
2018-09-17T12:02:05.475Z,24.52
2018-09-17T12:04:39.226Z,24.86
2018-09-17T12:07:13.103Z,24.59
2018-09-17T12:09:41.648Z,24.56
2018-09-17T12:12:10.164Z,24.68
2018-09-17T12:14:38.720Z,25.06
2018-09-17T12:17:07.241Z,25.40
2018-09-17T12:19:35.797Z,25.02
2018-09-17T12:22:04.330Z,24.92
2018-09-17T12:24:32.840Z,25.62
2018-09-17T12:27:01.531Z,25.28
2018-09-17T12:29:30.040Z,24.99
2018-09-17T12:31:59.905Z,25.04
2018-09-17T12:34:28.425Z,25.56
2018-09-17T12:36:56.980Z,25.64
2018-09-17T12:39:26.827Z,25.73
2018-09-17T12:41:55.371Z,25.60
2018-09-17T12:44:23.878Z,25.46
2018-09-17T12:46:52.509Z,25.61
2018-09-17T12:49:21.562Z,25.76
2018-09-17T12:51:52.998Z,25.90
2018-09-17T12:54:21.550Z,26.13
2018-09-17T12:56:50.112Z,26.29
2018-09-17T12:59:18.621Z,26.25
2018-09-17T13:01:47.181Z,26.15
2018-09-17T13:04:15.717Z,26.02
2018-09-17T13:06:44.292Z,26.12
2018-09-17T13:09:13.108Z,26.57
2018-09-17T13:11:42.038Z,26.47
2018-09-17T13:14:10.581Z,26.79
2018-09-17T13:16:40.018Z,26.72
2018-09-17T13:19:11.952Z,26.83
2018-09-17T13:21:40.749Z,26.73
2018-09-17T13:24:09.252Z,26.91
2018-09-17T13:26:38.551Z,26.67
2018-09-17T13:29:07.389Z,26.62
2018-09-17T13:31:36.006Z,27.01
2018-09-17T13:34:04.525Z,27.17
2018-09-17T13:36:33.048Z,27.07
2018-09-17T13:39:01.549Z,27.27
2018-09-17T13:41:30.077Z,26.75
2018-09-17T13:43:58.576Z,26.95
2018-09-17T13:46:27.158Z,26.98
2018-09-17T13:48:55.682Z,27.16
2018-09-17T13:51:24.270Z,27.23
2018-09-17T13:53:52.808Z,27.22
2018-09-17T13:56:24.305Z,27.26
2018-09-17T13:58:52.825Z,27.21
2018-09-17T14:01:21.376Z,27.23
2018-09-17T14:03:49.886Z,27.58
2018-09-17T14:06:18.446Z,27.49
2018-09-17T14:08:46.973Z,27.39
2018-09-17T14:11:15.536Z,27.48
2018-09-17T14:13:44.056Z,27.33
2018-09-17T14:16:12.560Z,27.41
2018-09-17T14:18:41.124Z,27.46
2018-09-17T14:21:09.661Z,27.38
2018-09-17T14:23:38.179Z,27.82
2018-09-17T14:26:06.680Z,27.78
2018-09-17T14:28:35.430Z,27.75
2018-09-17T14:31:03.976Z,27.80
2018-09-17T14:33:38.423Z,28.06
2018-09-17T14:36:06.969Z,28.00
2018-09-17T14:38:35.500Z,28.09
2018-09-17T14:41:04.019Z,28.30
2018-09-17T14:43:33.008Z,28.44
2018-09-17T14:46:01.454Z,28.48
2018-09-17T14:48:30.017Z,28.36
2018-09-17T14:50:58.528Z,28.24
2018-09-17T14:53:27.145Z,28.38
2018-09-17T14:55:55.631Z,28.38
2018-09-17T14:58:24.379Z,29.13
2018-09-17T15:00:52.938Z,29.54
2018-09-17T15:03:21.492Z,29.77
2018-09-17T15:05:50.005Z,29.70
2018-09-17T15:08:29.794Z,29.92
2018-09-17T15:11:06.522Z,29.23
2018-09-17T15:13:42.753Z,29.54
2018-09-17T15:16:17.300Z,29.73
2018-09-17T15:18:52.228Z,29.82
2018-09-17T15:21:28.991Z,29.98
2018-09-17T15:24:06.235Z,29.36
2018-09-17T15:26:44.114Z,30.01
2018-09-17T15:29:20.230Z,30.65
2018-09-17T15:31:56.803Z,30.82
2018-09-17T15:34:31.998Z,30.74
2018-09-17T15:37:09.116Z,30.56
2018-09-17T15:39:47.625Z,30.66
2018-09-17T15:42:27.500Z,30.29
2018-09-17T15:45:05.662Z,29.82
2018-09-17T15:47:40.878Z,30.18
2018-09-17T15:50:18.912Z,30.48
2018-09-17T15:53:06.634Z,30.38
2018-09-17T15:55:56.671Z,29.65
2018-09-17T15:58:33.218Z,29.82
2018-09-17T16:01:13.037Z,30.19
2018-09-17T16:03:50.915Z,30.57
2018-09-17T16:06:26.018Z,30.87
2018-09-17T16:09:02.076Z,31.15
2018-09-17T16:11:36.967Z,31.88
2018-09-17T16:14:11.893Z,31.61
2018-09-17T16:16:46.938Z,31.65
2018-09-17T16:19:24.054Z,31.35
2018-09-17T16:21:59.657Z,31.25
2018-09-17T16:24:38.131Z,30.91
2018-09-17T16:27:13.100Z,31.18
2018-09-17T16:29:48.825Z,30.87
2018-09-17T16:32:23.184Z,30.51
2018-09-17T16:34:58.310Z,30.18
2018-09-17T16:37:38.250Z,30.12
2018-09-17T16:40:15.570Z,29.80
2018-09-17T16:42:50.507Z,29.51
2018-09-17T16:45:30.306Z,29.28
2018-09-17T16:48:14.751Z,29.18
2018-09-17T16:50:51.749Z,29.16
2018-09-17T16:53:31.424Z,28.27
2018-09-17T16:56:08.938Z,28.13
2018-09-17T16:58:45.551Z,27.81
2018-09-17T17:01:24.330Z,27.93
2018-09-17T17:03:53.080Z,27.65
2018-09-17T17:06:21.637Z,27.30
2018-09-17T17:08:50.182Z,26.71
2018-09-17T17:11:18.713Z,26.24
2018-09-17T17:13:47.525Z,25.84
2018-09-17T17:16:16.087Z,26.02
2018-09-17T17:18:44.645Z,25.43
2018-09-17T17:21:13.160Z,25.09
2018-09-17T17:23:42.760Z,25.01
2018-09-17T17:26:11.336Z,24.98
2018-09-17T17:28:41.044Z,24.80
2018-09-17T17:31:09.621Z,24.28
2018-09-17T17:33:40.783Z,24.15
2018-09-17T17:36:11.439Z,23.84
2018-09-17T17:38:40.182Z,23.79
2018-09-17T17:41:09.023Z,23.35
2018-09-17T17:43:37.517Z,23.33
2018-09-17T17:46:06.872Z,23.22
2018-09-17T17:48:35.300Z,22.96
2018-09-17T17:51:03.928Z,22.79
2018-09-17T17:53:32.426Z,22.44
2018-09-17T17:56:00.965Z,22.32
2018-09-17T17:58:29.455Z,22.24
2018-09-17T18:00:58.488Z,22.21
2018-09-17T18:03:26.955Z,21.80
2018-09-17T18:05:55.484Z,21.71
2018-09-17T18:08:24.033Z,21.36
2018-09-17T18:10:52.579Z,21.30
2018-09-17T18:13:21.176Z,21.12
2018-09-17T18:15:49.789Z,21.00
2018-09-17T18:18:18.325Z,20.77
2018-09-17T18:20:46.906Z,20.67
2018-09-17T18:23:15.417Z,20.50
2018-09-17T18:25:43.968Z,20.53
2018-09-17T18:28:12.480Z,20.38
2018-09-17T18:30:41.041Z,20.08
2018-09-17T18:33:09.576Z,20.05
2018-09-17T18:35:38.125Z,20.20
2018-09-17T18:38:07.238Z,20.15
2018-09-17T18:40:36.286Z,19.89
2018-09-17T18:43:05.383Z,19.87
2018-09-17T18:45:35.368Z,19.71
2018-09-17T18:48:06.397Z,19.66
2018-09-17T18:50:39.391Z,19.40
2018-09-17T18:53:12.709Z,19.22
2018-09-17T18:55:41.444Z,18.97
2018-09-17T18:58:09.981Z,19.16
2018-09-17T19:00:40.413Z,18.92
2018-09-17T19:03:09.615Z,18.85
2018-09-17T19:05:38.184Z,18.82
2018-09-17T19:08:11.492Z,18.47
2018-09-17T19:10:40.057Z,17.52
2018-09-17T19:13:08.561Z,17.10
2018-09-17T19:15:42.280Z,17.52
2018-09-17T19:18:17.417Z,18.15
2018-09-17T19:20:47.416Z,18.35
2018-09-17T19:23:21.834Z,18.43
2018-09-17T19:25:50.863Z,18.41
2018-09-17T19:28:25.229Z,18.23
2018-09-17T19:30:53.730Z,18.34
2018-09-17T19:33:28.100Z,18.23
2018-09-17T19:35:56.952Z,18.18
2018-09-17T19:38:30.756Z,17.95
2018-09-17T19:40:59.297Z,17.89
2018-09-17T19:43:27.801Z,17.81
2018-09-17T19:46:01.612Z,17.74
2018-09-17T19:48:30.130Z,17.59
2018-09-17T19:52:03.641Z,17.27
2018-09-17T19:54:32.157Z,17.54
2018-09-17T19:57:01.120Z,17.58
2018-09-17T19:59:34.862Z,17.52
2018-09-17T20:02:03.421Z,17.42
2018-09-17T20:04:37.216Z,17.48
2018-09-17T20:07:05.799Z,17.53
2018-09-17T20:09:34.506Z,17.38
2018-09-17T20:12:04.091Z,17.19
2018-09-17T20:14:32.648Z,17.26
2018-09-17T20:17:01.257Z,17.02
2018-09-17T20:19:29.857Z,16.78
2018-09-17T20:21:58.373Z,16.74
2018-09-17T20:24:26.939Z,16.94
2018-09-17T20:26:55.464Z,16.89
2018-09-17T20:29:24.037Z,16.73
2018-09-17T20:31:52.701Z,16.58
2018-09-17T20:34:21.163Z,16.86
2018-09-17T20:36:50.032Z,16.97
2018-09-17T20:39:18.873Z,16.92
2018-09-17T20:41:50.141Z,16.84
2018-09-17T20:44:18.822Z,16.87
2018-09-17T20:46:47.390Z,16.74
2018-09-17T20:49:16.393Z,16.72
2018-09-17T20:51:45.337Z,16.68
2018-09-17T20:54:13.960Z,16.61
2018-09-17T20:56:43.191Z,16.58
2018-09-17T20:59:11.749Z,16.53
2018-09-17T21:01:48.252Z,16.61
2018-09-17T21:04:19.405Z,16.61
2018-09-17T21:06:49.995Z,16.57
2018-09-17T21:09:19.392Z,16.44
2018-09-17T21:11:49.304Z,16.44
2018-09-17T21:14:19.962Z,16.41
2018-09-17T21:16:49.138Z,16.40
2018-09-17T21:19:18.719Z,16.35
2018-09-17T21:21:49.150Z,16.21
2018-09-17T21:24:19.019Z,16.25
2018-09-17T21:26:49.369Z,16.25
2018-09-17T21:29:17.900Z,16.21
2018-09-17T21:31:46.943Z,16.07
2018-09-17T21:34:19.988Z,16.01
2018-09-17T21:36:50.336Z,16.03
2018-09-17T21:39:19.889Z,16.04
2018-09-17T21:41:50.470Z,15.90
2018-09-17T21:44:19.611Z,15.88
2018-09-17T21:46:50.001Z,15.98
2018-09-17T21:49:19.748Z,15.83
2018-09-17T21:51:49.149Z,15.93
2018-09-17T21:54:20.783Z,15.70
2018-09-17T21:56:51.208Z,15.59
2018-09-17T21:59:22.229Z,15.71
2018-09-17T22:01:51.797Z,15.19
2018-09-17T22:04:21.489Z,14.47
2018-09-17T22:06:50.900Z,14.69
2018-09-17T22:09:21.998Z,15.05
2018-09-17T22:11:51.332Z,14.96
2018-09-17T22:14:20.896Z,14.88
2018-09-17T22:16:50.204Z,15.12
2018-09-17T22:19:19.792Z,15.02
2018-09-17T22:21:50.266Z,15.12
2018-09-17T22:24:20.301Z,15.12
2018-09-17T22:26:51.053Z,15.10
2018-09-17T22:29:20.401Z,15.06
2018-09-17T22:31:50.793Z,14.94
2018-09-17T22:34:20.960Z,14.73
2018-09-17T22:36:51.000Z,14.52
2018-09-17T22:39:21.380Z,14.29
2018-09-17T22:41:50.852Z,14.49
2018-09-17T22:44:19.403Z,14.40
2018-09-17T22:46:47.956Z,13.81
2018-09-17T22:49:16.469Z,13.66
2018-09-17T22:51:45.025Z,13.93
2018-09-17T22:54:13.545Z,14.21
2018-09-17T22:56:42.089Z,14.28
2018-09-17T22:59:10.608Z,14.32
2018-09-17T23:01:39.163Z,14.11
2018-09-17T23:04:07.721Z,14.15
2018-09-17T23:06:36.274Z,13.81
2018-09-17T23:09:07.373Z,13.39
2018-09-17T23:11:35.928Z,13.55
2018-09-17T23:14:04.475Z,13.89
2018-09-17T23:16:33.033Z,13.97
2018-09-17T23:19:01.548Z,14.01
2018-09-17T23:21:30.104Z,13.65
2018-09-17T23:23:58.616Z,13.63
2018-09-17T23:26:27.169Z,13.19
2018-09-17T23:28:55.682Z,13.12
2018-09-17T23:31:24.234Z,13.31
2018-09-17T23:33:52.745Z,13.34
2018-09-17T23:36:21.291Z,12.88
2018-09-17T23:38:49.804Z,13.04
2018-09-17T23:41:18.352Z,13.25
2018-09-17T23:43:46.934Z,13.37
2018-09-17T23:46:15.488Z,13.23
2018-09-17T23:48:43.999Z,13.44
2018-09-17T23:51:12.557Z,12.79
2018-09-17T23:53:41.113Z,12.93
2018-09-17T23:56:09.696Z,12.72
2018-09-17T23:58:38.229Z,12.47
